Terminal Aerodrome Forecast
Issued by NWS Missoula, MT

Current Version | Previous Version | Text Only | Print | Product List | Glossary On
Versions: 1 2 3 4 5 6 7 8 9 10 11 12 13
000
FTUS45 KMSO 032321
TAFBTM
TAF
KBTM 032321Z 0400/0424 31012KT P6SM VCSH FEW030 BKN100
     FM040300 31007KT P6SM VCSH SCT020 OVC050
     FM041200 30008KT P6SM -SHRA SCT015 OVC050=

USA.gov is the U.S. government's official web portal to all federal, state and local government web resources and services.